• Join FlightAware (Why Join?)
  • Login
  • US Flag 
02:50PM EDT


 

Airport Tracker/Info


-or-


 

Live Flight TrackerFlight Track Log ✈ SWA1712 ✈ 24-Apr-2012 ✈ KOAK - KLAX

Flight Track Log - Related Links

Times and Time Zones

All times are in EDT time to prevent confusion due to time zone crossing. See the SWA1712 flight status page for this flight to view local times or setup timezone preferences in your user account.

Time Position Orientation Groundspeed Altitude Reporting Facility
EDT Latitude Longitude Course Direction KTS MPH feet Rate Location/Type
01:38PM 37.6946 -122.1913 294° West  Level FlightAware Approximate
01:39PM 37.7500 -122.3500 218° Southwest 227 261 5,200  Level Northern Cal TRACON
01:40PM 37.7000 -122.4000 202° Southwest 262 302 7,600 2,340 Climbing Northern Cal TRACON
01:41PM 37.6333 -122.4333 173° South 283 326 10,000 2,700 Climbing Northern Cal TRACON
01:42PM 37.5142 -122.4161 133° Southeast 340 391 13,800 2,700 Climbing Oakland Center
01:43PM 37.4483 -122.3286 132° Southeast 316 364 16,200 2,340 Climbing Oakland Center
01:44PM 37.3806 -122.2333 133° Southeast 340 391 18,500 2,280 Climbing Oakland Center
01:45PM 37.3108 -122.1381 134° Southeast 357 411 20,800 2,160 Climbing Oakland Center
01:46PM 37.2367 -122.0406 134° Southeast 376 433 22,900 1,920 Climbing Oakland Center
01:47PM 37.1603 -121.9403 133° Southeast 382 440 24,700 1,620 Climbing Oakland Center
01:48PM 37.0839 -121.8378 133° Southeast 388 447 26,200 1,500 Climbing Oakland Center
01:49PM 37.0053 -121.7331 133° Southeast 401 461 27,800 1,560 Climbing Oakland Center
01:50PM 36.9267 -121.6281 135° Southeast 406 467 29,400 1,500 Climbing Oakland Center
01:51PM 36.8458 -121.5264 131° Southeast 406 467 30,900 1,200 Climbing Oakland Center
01:52PM 36.7775 -121.4272 133° Southeast 406 467 31,900 1,140 Climbing Oakland Center
01:53PM 36.6986 -121.3231 134° Southeast 406 467 33,200 1,200 Climbing Oakland Center
01:54PM 36.6175 -121.2167 134° Southeast 411 473 34,400 900 Climbing Oakland Center
01:55PM 36.5361 -121.1131 133° Southeast 411 473 35,000 240 Climbing Oakland Center
01:56PM 36.4569 -121.0072 135° Southeast 411 473 35,000  Level Oakland Center
01:57PM 36.3736 -120.9039 134° Southeast 411 473 35,000  Level Oakland Center
01:58PM 36.2942 -120.8008 134° Southeast 411 473 35,000  Level Oakland Center
01:59PM 36.2128 -120.6956 135° Southeast 416 479 35,000  Level Oakland Center
02:00PM 36.1289 -120.5931 133° Southeast 416 479 35,000  Level Oakland Center
02:01PM 36.0492 -120.4881 133° Southeast 416 479 35,000 -120 Level Oakland Center
02:02PM 35.9883 -120.4078 134° Southeast 417 480 34,900  Descending Los Angeles Center
02:03PM 35.9106 -120.3086 134° Southeast 390 449 35,000  Climbing Los Angeles Center
02:04PM 35.8425 -120.2231 135° Southeast 390 449 35,000  Level Los Angeles Center
02:05PM 35.7603 -120.1217 134° Southeast 401 461 35,000  Level Los Angeles Center
02:06PM 35.6803 -120.0181 140° Southeast 411 473 35,000  Level Los Angeles Center
02:07PM 35.5914 -119.9269 145° Southeast 416 479 35,000 -480 Level Los Angeles Center
02:08PM 35.5019 -119.8514 145° Southeast 409 471 34,100 -960 Descending Los Angeles Center
02:09PM 35.4103 -119.7733 145° Southeast 404 465 33,100 -1,020 Descending Los Angeles Center
02:10PM 35.3208 -119.6953 146° Southeast 399 459 32,100 -1,080 Descending Los Angeles Center
02:11PM 35.2311 -119.6203 144° Southeast 399 459 31,000 -1,020 Descending Los Angeles Center
02:12PM 35.1436 -119.5428 146° Southeast 393 452 30,100 -960 Descending Los Angeles Center
02:13PM 35.0539 -119.4681 145° Southeast 393 452 29,100 -960 Descending Los Angeles Center
02:14PM 34.9619 -119.3908 145° Southeast 393 452 28,200 -960 Descending Los Angeles Center
02:15PM 34.8703 -119.3114 146° Southeast 398 458 27,200 -960 Descending Los Angeles Center
02:16PM 34.7803 -119.2369 145° Southeast 398 458 26,300 -1,020 Descending Los Angeles Center
02:17PM 34.6925 -119.1631 149° Southeast 392 451 25,200 -1,500 Descending Los Angeles Center
02:18PM 34.5961 -119.0914 144° Southeast 386 444 23,300 -2,100 Descending Los Angeles Center
02:19PM 34.5144 -119.0203 147° Southeast 381 438 21,100 -2,220 Descending Los Angeles Center
02:20PM 34.4344 -118.9572 144° Southeast 369 425 18,900 -2,280 Descending Los Angeles Center
02:21PM 34.3567 -118.8892 163° South 357 411 16,600 -2,280 Descending Los Angeles Center
02:22PM 34.2697 -118.8561 162° South 340 391 14,400 -2,340 Descending Los Angeles Center
02:23PM 34.1831 -118.8231 162° South 329 379 12,000 -1,740 Descending Los Angeles Center
02:24PM 34.1064 -118.7931 153° Southeast 323 372 11,000 -900 Descending Los Angeles Center
02:25PM 34.0406 -118.7533 100° East 300 345 10,200 -540 Descending Los Angeles Center
02:26PM 34.0278 -118.6678 95° East 242 278 10,000 -480 Descending Los Angeles Center
02:27PM 34.0211 -118.5822 95° East 235 270 9,300 -900 Descending Los Angeles Center
02:28PM 34.0161 -118.5119 92° East 228 262 8,300 -1,200 Descending Los Angeles Center
02:29PM 34.0136 -118.4342 82° East 217 250 7,000 -900 Descending Los Angeles Center
02:30PM 34.0211 -118.3694 94° East 212 244 6,500 -1,080 Descending Los Angeles Center
02:31PM 34.0167 -118.3000 112° Southeast 202 232 4,900 -1,680 Descending Southern California TRACON
02:32PM 34.0000 -118.2500 231° Southwest 201 231 3,300 -1,500 Descending Southern California TRACON
02:33PM 33.9667 -118.3000 248° West 180 207 1,900 -1,140 Descending Southern California TRACON
02:34PM 33.9500 -118.3500 270° West 145 167 1,100 -840 Descending Southern California TRACON
02:35PM 33.9500 -118.3833 256° West 138 159 400 -540 Descending Southern California TRACON
02:36PM 33.9383 -118.4397 256° West 133 153 100 -300 Descending Los Angeles Center